createdAt,value
2023-03-13T17:29:36.369Z,98836.44
2023-03-13T17:32:10.860Z,98837.39
2023-03-13T17:37:24.744Z,98831.79
2023-03-13T17:39:57.685Z,98845.58
2023-03-13T17:42:30.668Z,98836.19
2023-03-13T17:45:06.722Z,98836.00
2023-03-13T17:47:41.373Z,98847.91
2023-03-13T17:50:20.624Z,98832.50
2023-03-13T17:52:54.050Z,98839.19
2023-03-13T17:55:26.981Z,98843.44
2023-03-13T17:58:00.924Z,98844.30
2023-03-13T18:00:35.405Z,98845.88
2023-03-13T18:03:08.526Z,98846.59
2023-03-13T18:05:44.326Z,98846.52
2023-03-13T18:08:17.510Z,98844.75
2023-03-13T18:10:50.508Z,98853.95
2023-03-13T18:13:23.849Z,98864.16
2023-03-13T18:16:00.323Z,98839.48
2023-03-13T18:18:33.292Z,98854.73
2023-03-13T18:21:11.514Z,98855.60
2023-03-13T18:23:44.688Z,98858.78
2023-03-13T18:26:30.792Z,98862.05
2023-03-13T18:29:05.546Z,98853.60
2023-03-13T18:31:40.590Z,98862.77
2023-03-13T18:34:15.383Z,98855.89
2023-03-13T18:36:48.594Z,98842.46
2023-03-13T18:39:21.838Z,98848.07
2023-03-13T18:41:55.185Z,98850.70
2023-03-13T18:44:28.275Z,98860.84
2023-03-13T18:47:01.360Z,98859.86
2023-03-13T18:49:34.373Z,98858.13
2023-03-13T18:52:07.881Z,98871.05
2023-03-13T18:54:40.952Z,98864.97
2023-03-13T18:57:16.525Z,98878.71
2023-03-13T18:59:50.935Z,98884.61
2023-03-13T19:02:23.951Z,98877.84
2023-03-13T19:04:56.902Z,98877.02
2023-03-13T19:07:30.302Z,98879.50
2023-03-13T19:10:04.478Z,98887.87
2023-03-13T19:12:37.512Z,98887.00
2023-03-13T19:18:01.615Z,98889.27
2023-03-13T19:20:34.388Z,98891.05
2023-03-13T19:23:07.379Z,98900.28
2023-03-13T19:25:40.224Z,98890.89
2023-03-13T19:28:13.576Z,98906.99
2023-03-13T19:30:47.825Z,98905.39
2023-03-13T19:33:20.991Z,98903.54
2023-03-13T19:35:54.232Z,98905.06
2023-03-13T19:38:27.556Z,98894.73
2023-03-13T19:41:01.256Z,98902.52
2023-03-13T19:43:35.650Z,98899.25
2023-03-13T19:46:25.655Z,98908.33
2023-03-13T19:49:01.260Z,98900.59
2023-03-13T19:54:16.385Z,98902.59
2023-03-13T19:56:50.627Z,98906.91
2023-03-13T19:59:26.845Z,98903.41
2023-03-13T20:02:01.438Z,98898.19
2023-03-13T20:04:37.108Z,98920.98
2023-03-13T20:07:10.096Z,98905.67
2023-03-13T20:09:43.202Z,98910.78
2023-03-13T20:12:16.304Z,98918.35
2023-03-13T20:14:51.890Z,98908.14
2023-03-13T20:17:24.932Z,98914.82
2023-03-13T20:19:57.901Z,98902.69
2023-03-13T20:22:31.192Z,98907.62
2023-03-13T20:25:04.309Z,98909.19
2023-03-13T20:27:37.450Z,98921.00
2023-03-13T20:30:13.425Z,98909.73
2023-03-13T20:32:58.878Z,98906.98
2023-03-13T20:35:21.257Z,98909.53
2023-03-13T20:37:54.737Z,98893.97
2023-03-13T20:40:27.894Z,98904.17
2023-03-13T20:43:01.641Z,98885.42
2023-03-13T20:45:34.763Z,98883.69
2023-03-13T20:48:08.495Z,98892.12
2023-03-13T20:50:41.379Z,98881.02
2023-03-13T20:53:15.649Z,98890.36
2023-03-13T20:55:49.213Z,98891.22
2023-03-13T20:58:22.278Z,98889.48
2023-03-13T21:00:55.245Z,98886.03
2023-03-13T21:03:28.565Z,98879.28
2023-03-13T21:06:04.027Z,98879.17
2023-03-13T21:08:38.873Z,98878.38
2023-03-13T21:11:16.377Z,98883.69
2023-03-13T21:13:50.425Z,98877.77
2023-03-13T21:16:23.585Z,98882.00
2023-03-13T21:18:56.672Z,98880.52
2023-03-13T21:21:30.183Z,98878.13
2023-03-13T21:24:03.270Z,98866.36
2023-03-13T21:26:36.355Z,98875.08
2023-03-13T21:29:11.023Z,98884.58
2023-03-13T21:31:44.179Z,98877.87
2023-03-13T21:34:17.166Z,98885.80
2023-03-13T21:36:50.150Z,98883.25
2023-03-13T21:39:23.553Z,98880.95
2023-03-13T21:41:57.408Z,98880.95
2023-03-13T21:44:31.774Z,98878.39
2023-03-13T21:47:04.737Z,98871.64
2023-03-13T21:49:40.566Z,98870.73
2023-03-13T21:52:13.904Z,98870.66
2023-03-13T21:54:47.405Z,98872.22
2023-03-13T21:57:20.530Z,98864.69
2023-03-13T21:59:56.131Z,98880.86
2023-03-13T22:02:29.678Z,98863.87
2023-03-13T22:07:55.521Z,98858.84
2023-03-13T22:10:28.629Z,98859.03
2023-03-13T22:13:01.690Z,98860.61
2023-03-13T22:15:35.158Z,98866.61
2023-03-13T22:18:08.455Z,98852.09
2023-03-13T22:20:41.472Z,98849.97
2023-03-13T22:23:14.988Z,98860.45
2023-03-13T22:25:50.676Z,98858.92
2023-03-13T22:28:23.832Z,98840.34
2023-03-13T22:30:56.822Z,98822.56
2023-03-13T22:33:30.126Z,98836.30
2023-03-13T22:36:04.112Z,98814.45
2023-03-13T22:38:39.143Z,98814.80
2023-03-13T22:41:15.099Z,98810.83
2023-03-13T22:43:48.239Z,98798.21
2023-03-13T22:46:21.300Z,98800.84
2023-03-13T22:48:54.443Z,98801.18
2023-03-13T22:51:27.385Z,98801.03
2023-03-13T22:54:00.459Z,98806.13
2023-03-13T22:56:33.365Z,98795.09
2023-03-13T22:59:06.337Z,98778.60
2023-03-13T23:01:39.427Z,98789.87
2023-03-13T23:04:12.382Z,98779.98
2023-03-13T23:06:47.925Z,98780.92
2023-03-13T23:09:20.908Z,98770.96
2023-03-13T23:11:53.883Z,98775.50
2023-03-13T23:14:28.634Z,98760.31
2023-03-13T23:17:01.872Z,98756.25
2023-03-13T23:19:37.697Z,98756.43
2023-03-13T23:22:13.249Z,98748.98
2023-03-13T23:24:46.554Z,98744.05
2023-03-13T23:27:24.036Z,98740.66
2023-03-13T23:29:57.369Z,98737.31
2023-03-13T23:32:30.916Z,98743.33
2023-03-13T23:35:04.660Z,98734.94
2023-03-13T23:37:38.389Z,98721.33
2023-03-13T23:40:13.666Z,98725.58
2023-03-13T23:42:51.650Z,98722.22
2023-03-13T23:45:24.865Z,98718.77
2023-03-13T23:47:58.294Z,98711.03
2023-03-13T23:50:31.883Z,98717.05
2023-03-13T23:53:05.190Z,98711.93
2023-03-13T23:55:38.333Z,98706.81
2023-03-13T23:58:11.444Z,98690.83
